sensor_id;sensor_type;location;lat;lon;timestamp;temperature;humidity
5842;DHT22;2947;52.276;9.946;2022-08-18T00:01:39;21.00;62.00
5842;DHT22;2947;52.276;9.946;2022-08-18T00:04:07;21.00;1.00
5842;DHT22;2947;52.276;9.946;2022-08-18T00:06:33;21.00;27.30
5842;DHT22;2947;52.276;9.946;2022-08-18T00:09:01;21.00;99.90
5842;DHT22;2947;52.276;9.946;2022-08-18T00:11:30;21.00;99.90
5842;DHT22;2947;52.276;9.946;2022-08-18T00:13:58;20.90;99.90
5842;DHT22;2947;52.276;9.946;2022-08-18T00:16:23;20.90;99.90
5842;DHT22;2947;52.276;9.946;2022-08-18T00:18:49;20.80;1.00
5842;DHT22;2947;52.276;9.946;2022-08-18T00:21:16;20.80;1.00
5842;DHT22;2947;52.276;9.946;2022-08-18T00:23:42;20.70;1.00
5842;DHT22;2947;52.276;9.946;2022-08-18T00:26:08;20.70;20.60
5842;DHT22;2947;52.276;9.946;2022-08-18T00:28:34;20.70;66.60
5842;DHT22;2947;52.276;9.946;2022-08-18T00:30:59;20.60;99.90
5842;DHT22;2947;52.276;9.946;2022-08-18T00:33:25;20.60;99.90
5842;DHT22;2947;52.276;9.946;2022-08-18T00:35:51;20.60;99.90
5842;DHT22;2947;52.276;9.946;2022-08-18T00:38:17;20.50;99.90
5842;DHT22;2947;52.276;9.946;2022-08-18T00:40:45;20.50;99.90
5842;DHT22;2947;52.276;9.946;2022-08-18T00:43:43;20.50;99.90
5842;DHT22;2947;52.276;9.946;2022-08-18T00:46:14;20.40;99.90
5842;DHT22;2947;52.276;9.946;2022-08-18T00:48:42;20.40;99.90
5842;DHT22;2947;52.276;9.946;2022-08-18T00:51:58;20.40;1.00
5842;DHT22;2947;52.276;9.946;2022-08-18T00:54:15;20.40;1.00
5842;DHT22;2947;52.276;9.946;2022-08-18T00:56:54;20.30;1.00
5842;DHT22;2947;52.276;9.946;2022-08-18T00:59:27;20.30;1.00
5842;DHT22;2947;52.276;9.946;2022-08-18T01:01:58;20.30;1.00
5842;DHT22;2947;52.276;9.946;2022-08-18T01:04:37;20.30;1.00
5842;DHT22;2947;52.276;9.946;2022-08-18T01:07:23;20.20;1.00
5842;DHT22;2947;52.276;9.946;2022-08-18T01:09:54;20.20;1.00
5842;DHT22;2947;52.276;9.946;2022-08-18T01:12:22;20.30;1.00
5842;DHT22;2947;52.276;9.946;2022-08-18T01:14:48;20.20;1.00
5842;DHT22;2947;52.276;9.946;2022-08-18T01:17:14;20.10;1.00
5842;DHT22;2947;52.276;9.946;2022-08-18T01:19:58;20.10;99.90
5842;DHT22;2947;52.276;9.946;2022-08-18T01:25:19;20.10;1.00
5842;DHT22;2947;52.276;9.946;2022-08-18T01:28:11;20.10;1.00
5842;DHT22;2947;52.276;9.946;2022-08-18T01:30:48;20.10;1.00
5842;DHT22;2947;52.276;9.946;2022-08-18T01:33:17;20.10;1.00
5842;DHT22;2947;52.276;9.946;2022-08-18T01:35:46;20.10;1.00
5842;DHT22;2947;52.276;9.946;2022-08-18T01:38:15;20.20;1.00
5842;DHT22;2947;52.276;9.946;2022-08-18T01:40:44;20.10;1.00
5842;DHT22;2947;52.276;9.946;2022-08-18T01:43:11;20.10;1.00
5842;DHT22;2947;52.276;9.946;2022-08-18T01:45:38;20.00;1.00
5842;DHT22;2947;52.276;9.946;2022-08-18T01:48:04;20.00;1.00
5842;DHT22;2947;52.276;9.946;2022-08-18T01:50:30;19.90;1.00
5842;DHT22;2947;52.276;9.946;2022-08-18T01:52:58;19.80;1.00
5842;DHT22;2947;52.276;9.946;2022-08-18T01:55:24;19.90;1.00
5842;DHT22;2947;52.276;9.946;2022-08-18T01:57:53;19.80;1.00
5842;DHT22;2947;52.276;9.946;2022-08-18T02:00:20;19.90;1.00
5842;DHT22;2947;52.276;9.946;2022-08-18T02:02:47;19.80;1.00
5842;DHT22;2947;52.276;9.946;2022-08-18T02:05:17;19.70;1.00
5842;DHT22;2947;52.276;9.946;2022-08-18T02:07:47;19.70;1.00
5842;DHT22;2947;52.276;9.946;2022-08-18T02:10:13;19.70;1.00
5842;DHT22;2947;52.276;9.946;2022-08-18T02:12:39;19.60;1.00
5842;DHT22;2947;52.276;9.946;2022-08-18T02:15:06;19.60;1.00
5842;DHT22;2947;52.276;9.946;2022-08-18T02:17:41;19.60;1.00
5842;DHT22;2947;52.276;9.946;2022-08-18T02:20:10;19.60;1.00
5842;DHT22;2947;52.276;9.946;2022-08-18T02:22:38;19.60;1.00
5842;DHT22;2947;52.276;9.946;2022-08-18T02:25:05;19.60;1.00
5842;DHT22;2947;52.276;9.946;2022-08-18T02:27:31;19.60;1.00
5842;DHT22;2947;52.276;9.946;2022-08-18T02:29:59;19.70;1.00
5842;DHT22;2947;52.276;9.946;2022-08-18T02:32:26;19.70;1.00
5842;DHT22;2947;52.276;9.946;2022-08-18T02:34:53;19.60;1.00
5842;DHT22;2947;52.276;9.946;2022-08-18T02:37:19;19.60;1.00
5842;DHT22;2947;52.276;9.946;2022-08-18T02:39:45;19.60;4.60
5842;DHT22;2947;52.276;9.946;2022-08-18T02:42:11;19.70;1.00
5842;DHT22;2947;52.276;9.946;2022-08-18T02:44:38;19.60;2.10
5842;DHT22;2947;52.276;9.946;2022-08-18T02:47:04;19.70;1.00
5842;DHT22;2947;52.276;9.946;2022-08-18T02:49:30;19.70;6.00
5842;DHT22;2947;52.276;9.946;2022-08-18T02:51:56;19.70;1.00
5842;DHT22;2947;52.276;9.946;2022-08-18T02:54:23;19.60;1.00
5842;DHT22;2947;52.276;9.946;2022-08-18T02:56:51;20.20;1.00
5842;DHT22;2947;52.276;9.946;2022-08-18T02:59:21;19.60;19.30
5842;DHT22;2947;52.276;9.946;2022-08-18T03:01:51;19.60;39.50
5842;DHT22;2947;52.276;9.946;2022-08-18T03:04:22;19.60;42.10
5842;DHT22;2947;52.276;9.946;2022-08-18T03:06:52;19.60;55.60
5842;DHT22;2947;52.276;9.946;2022-08-18T03:09:19;19.60;62.70
5842;DHT22;2947;52.276;9.946;2022-08-18T03:11:45;19.50;78.70
5842;DHT22;2947;52.276;9.946;2022-08-18T03:14:12;19.50;91.00
5842;DHT22;2947;52.276;9.946;2022-08-18T03:16:43;19.40;96.90
5842;DHT22;2947;52.276;9.946;2022-08-18T03:19:10;19.50;99.90
5842;DHT22;2947;52.276;9.946;2022-08-18T03:21:39;19.40;99.90
5842;DHT22;2947;52.276;9.946;2022-08-18T03:24:04;19.40;99.90
5842;DHT22;2947;52.276;9.946;2022-08-18T03:26:31;18.70;99.90
5842;DHT22;2947;52.276;9.946;2022-08-18T03:28:59;19.40;99.90
5842;DHT22;2947;52.276;9.946;2022-08-18T03:31:28;19.40;99.90
5842;DHT22;2947;52.276;9.946;2022-08-18T03:33:56;19.40;99.90
5842;DHT22;2947;52.276;9.946;2022-08-18T03:36:26;19.40;99.90
5842;DHT22;2947;52.276;9.946;2022-08-18T03:38:54;19.30;99.90
5842;DHT22;2947;52.276;9.946;2022-08-18T03:41:24;19.30;99.90
5842;DHT22;2947;52.276;9.946;2022-08-18T03:43:51;19.40;99.90
5842;DHT22;2947;52.276;9.946;2022-08-18T03:46:18;19.30;99.90
5842;DHT22;2947;52.276;9.946;2022-08-18T03:48:46;19.30;99.90
5842;DHT22;2947;52.276;9.946;2022-08-18T03:51:17;19.40;99.90
5842;DHT22;2947;52.276;9.946;2022-08-18T03:53:55;19.40;99.90
5842;DHT22;2947;52.276;9.946;2022-08-18T03:56:27;19.40;99.90
5842;DHT22;2947;52.276;9.946;2022-08-18T03:59:00;19.40;99.90
5842;DHT22;2947;52.276;9.946;2022-08-18T04:01:32;19.30;99.90
5842;DHT22;2947;52.276;9.946;2022-08-18T04:04:01;19.40;99.90
5842;DHT22;2947;52.276;9.946;2022-08-18T04:06:32;19.40;99.90
5842;DHT22;2947;52.276;9.946;2022-08-18T04:09:02;19.40;99.90
5842;DHT22;2947;52.276;9.946;2022-08-18T04:11:34;19.40;99.90
5842;DHT22;2947;52.276;9.946;2022-08-18T04:14:01;19.40;99.90
5842;DHT22;2947;52.276;9.946;2022-08-18T04:16:28;19.40;99.90
5842;DHT22;2947;52.276;9.946;2022-08-18T04:18:55;19.40;99.90
5842;DHT22;2947;52.276;9.946;2022-08-18T04:21:24;19.40;99.60
5842;DHT22;2947;52.276;9.946;2022-08-18T04:23:50;19.40;94.00
5842;DHT22;2947;52.276;9.946;2022-08-18T04:26:15;19.30;99.90
5842;DHT22;2947;52.276;9.946;2022-08-18T04:28:43;19.30;99.90
5842;DHT22;2947;52.276;9.946;2022-08-18T04:31:11;19.30;99.90
5842;DHT22;2947;52.276;9.946;2022-08-18T04:33:39;19.30;99.90
5842;DHT22;2947;52.276;9.946;2022-08-18T04:36:13;19.30;99.90
5842;DHT22;2947;52.276;9.946;2022-08-18T04:38:40;19.30;99.90
5842;DHT22;2947;52.276;9.946;2022-08-18T04:41:07;19.20;99.90
5842;DHT22;2947;52.276;9.946;2022-08-18T04:43:33;19.20;99.90
5842;DHT22;2947;52.276;9.946;2022-08-18T04:45:59;19.20;99.90
5842;DHT22;2947;52.276;9.946;2022-08-18T04:48:33;19.10;99.90
5842;DHT22;2947;52.276;9.946;2022-08-18T04:53:37;19.50;99.90
5842;DHT22;2947;52.276;9.946;2022-08-18T04:56:16;19.30;99.90
5842;DHT22;2947;52.276;9.946;2022-08-18T04:58:47;19.30;99.90
5842;DHT22;2947;52.276;9.946;2022-08-18T05:01:19;19.30;99.90
5842;DHT22;2947;52.276;9.946;2022-08-18T05:03:47;19.40;99.90
5842;DHT22;2947;52.276;9.946;2022-08-18T05:06:13;19.40;99.90
5842;DHT22;2947;52.276;9.946;2022-08-18T05:08:39;19.50;99.90
5842;DHT22;2947;52.276;9.946;2022-08-18T05:11:05;19.80;99.90
5842;DHT22;2947;52.276;9.946;2022-08-18T05:13:32;19.50;99.90
5842;DHT22;2947;52.276;9.946;2022-08-18T05:15:59;19.60;99.90
5842;DHT22;2947;52.276;9.946;2022-08-18T05:18:29;19.70;99.90
5842;DHT22;2947;52.276;9.946;2022-08-18T05:20:57;19.70;99.90
5842;DHT22;2947;52.276;9.946;2022-08-18T05:23:25;19.80;99.90
5842;DHT22;2947;52.276;9.946;2022-08-18T05:25:57;19.80;99.90
5842;DHT22;2947;52.276;9.946;2022-08-18T05:28:24;20.90;99.90
5842;DHT22;2947;52.276;9.946;2022-08-18T05:30:50;19.90;99.90
5842;DHT22;2947;52.276;9.946;2022-08-18T05:33:16;20.00;99.90
5842;DHT22;2947;52.276;9.946;2022-08-18T05:35:44;20.00;99.90
5842;DHT22;2947;52.276;9.946;2022-08-18T05:41:13;20.20;99.90
5842;DHT22;2947;52.276;9.946;2022-08-18T05:43:44;20.30;99.90
5842;DHT22;2947;52.276;9.946;2022-08-18T05:46:11;20.30;99.80
5842;DHT22;2947;52.276;9.946;2022-08-18T05:48:37;20.50;90.40
5842;DHT22;2947;52.276;9.946;2022-08-18T05:51:18;20.60;83.80
5842;DHT22;2947;52.276;9.946;2022-08-18T05:53:51;20.60;67.60
5842;DHT22;2947;52.276;9.946;2022-08-18T05:56:37;20.70;48.40
5842;DHT22;2947;52.276;9.946;2022-08-18T05:59:32;20.80;32.20
5842;DHT22;2947;52.276;9.946;2022-08-18T06:02:34;20.90;29.10
5842;DHT22;2947;52.276;9.946;2022-08-18T06:05:06;21.00;23.60
5842;DHT22;2947;52.276;9.946;2022-08-18T06:07:42;21.20;1.00
5842;DHT22;2947;52.276;9.946;2022-08-18T06:10:25;21.20;1.00
5842;DHT22;2947;52.276;9.946;2022-08-18T06:12:54;21.40;1.00
5842;DHT22;2947;52.276;9.946;2022-08-18T06:21:45;21.60;1.00
5842;DHT22;2947;52.276;9.946;2022-08-18T06:24:30;21.70;1.00
5842;DHT22;2947;52.276;9.946;2022-08-18T06:29:52;21.90;1.00
5842;DHT22;2947;52.276;9.946;2022-08-18T06:33:02;22.00;1.00
5842;DHT22;2947;52.276;9.946;2022-08-18T06:35:54;22.00;1.00
5842;DHT22;2947;52.276;9.946;2022-08-18T06:41:47;22.30;1.00
5842;DHT22;2947;52.276;9.946;2022-08-18T06:47:19;22.40;1.00
5842;DHT22;2947;52.276;9.946;2022-08-18T06:50:04;22.50;1.00
5842;DHT22;2947;52.276;9.946;2022-08-18T06:53:05;22.70;1.00
5842;DHT22;2947;52.276;9.946;2022-08-18T06:55:37;22.70;1.00
5842;DHT22;2947;52.276;9.946;2022-08-18T07:01:04;22.90;99.90
5842;DHT22;2947;52.276;9.946;2022-08-18T07:03:43;23.00;99.90
5842;DHT22;2947;52.276;9.946;2022-08-18T07:08:45;23.20;99.90
5842;DHT22;2947;52.276;9.946;2022-08-18T07:11:28;23.10;99.90
5842;DHT22;2947;52.276;9.946;2022-08-18T07:14:43;23.20;99.90
5842;DHT22;2947;52.276;9.946;2022-08-18T07:16:46;23.30;99.90
5842;DHT22;2947;52.276;9.946;2022-08-18T07:19:14;23.30;85.60
5842;DHT22;2947;52.276;9.946;2022-08-18T07:21:46;23.30;99.90
5842;DHT22;2947;52.276;9.946;2022-08-18T07:24:29;23.40;1.00
5842;DHT22;2947;52.276;9.946;2022-08-18T07:27:02;23.60;1.00
5842;DHT22;2947;52.276;9.946;2022-08-18T07:29:39;23.50;1.00
5842;DHT22;2947;52.276;9.946;2022-08-18T07:32:14;23.40;99.90
5842;DHT22;2947;52.276;9.946;2022-08-18T07:34:49;23.50;1.00
5842;DHT22;2947;52.276;9.946;2022-08-18T07:37:27;23.60;1.00
5842;DHT22;2947;52.276;9.946;2022-08-18T07:42:41;24.20;1.00
5842;DHT22;2947;52.276;9.946;2022-08-18T07:48:03;22.90;1.00
5842;DHT22;2947;52.276;9.946;2022-08-18T07:51:00;22.60;6.20
5842;DHT22;2947;52.276;9.946;2022-08-18T07:58:56;23.20;99.90
5842;DHT22;2947;52.276;9.946;2022-08-18T08:01:48;23.30;99.90
5842;DHT22;2947;52.276;9.946;2022-08-18T08:04:36;23.40;99.90
5842;DHT22;2947;52.276;9.946;2022-08-18T08:07:10;23.60;1.70
5842;DHT22;2947;52.276;9.946;2022-08-18T08:21:04;24.00;1.00
5842;DHT22;2947;52.276;9.946;2022-08-18T08:29:34;24.20;99.90
5842;DHT22;2947;52.276;9.946;2022-08-18T08:32:17;24.20;1.00
5842;DHT22;2947;52.276;9.946;2022-08-18T08:34:58;24.10;1.00
5842;DHT22;2947;52.276;9.946;2022-08-18T08:37:47;24.20;1.00
5842;DHT22;2947;52.276;9.946;2022-08-18T08:40:20;24.30;99.90
5842;DHT22;2947;52.276;9.946;2022-08-18T08:46:14;24.10;99.90
5842;DHT22;2947;52.276;9.946;2022-08-18T08:48:49;24.10;1.00
5842;DHT22;2947;52.276;9.946;2022-08-18T08:51:36;24.30;99.90
5842;DHT22;2947;52.276;9.946;2022-08-18T08:54:19;24.40;1.00
5842;DHT22;2947;52.276;9.946;2022-08-18T08:56:53;24.40;1.00
5842;DHT22;2947;52.276;9.946;2022-08-18T08:59:21;24.40;99.90
5842;DHT22;2947;52.276;9.946;2022-08-18T09:13:40;24.90;1.00
5842;DHT22;2947;52.276;9.946;2022-08-18T09:16:25;24.70;99.90
5842;DHT22;2947;52.276;9.946;2022-08-18T09:22:36;25.00;93.40
5842;DHT22;2947;52.276;9.946;2022-08-18T09:28:09;25.70;1.00
5842;DHT22;2947;52.276;9.946;2022-08-18T09:36:36;25.70;99.90
5842;DHT22;2947;52.276;9.946;2022-08-18T09:39:26;26.30;77.60
5842;DHT22;2947;52.276;9.946;2022-08-18T09:42:33;25.80;99.90
5842;DHT22;2947;52.276;9.946;2022-08-18T09:50:33;26.10;1.00
5842;DHT22;2947;52.276;9.946;2022-08-18T09:53:51;26.20;1.00
5842;DHT22;2947;52.276;9.946;2022-08-18T10:02:00;26.30;1.00
5842;DHT22;2947;52.276;9.946;2022-08-18T10:04:35;26.60;1.00
5842;DHT22;2947;52.276;9.946;2022-08-18T10:07:19;26.50;1.00
5842;DHT22;2947;52.276;9.946;2022-08-18T10:09:56;26.60;1.00
5842;DHT22;2947;52.276;9.946;2022-08-18T10:21:25;26.30;1.00
5842;DHT22;2947;52.276;9.946;2022-08-18T10:23:57;26.20;1.00
5842;DHT22;2947;52.276;9.946;2022-08-18T10:29:08;26.20;1.00
5842;DHT22;2947;52.276;9.946;2022-08-18T10:37:26;26.20;1.00
5842;DHT22;2947;52.276;9.946;2022-08-18T10:42:39;25.90;1.00
5842;DHT22;2947;52.276;9.946;2022-08-18T10:48:28;25.80;1.00
5842;DHT22;2947;52.276;9.946;2022-08-18T10:51:15;25.90;1.00
5842;DHT22;2947;52.276;9.946;2022-08-18T10:53:53;26.00;1.00
5842;DHT22;2947;52.276;9.946;2022-08-18T10:56:51;26.00;1.00
5842;DHT22;2947;52.276;9.946;2022-08-18T11:05:22;26.60;1.00
5842;DHT22;2947;52.276;9.946;2022-08-18T11:07:53;26.80;99.90
5842;DHT22;2947;52.276;9.946;2022-08-18T11:10:44;27.10;99.90
5842;DHT22;2947;52.276;9.946;2022-08-18T11:19:10;27.80;99.90
5842;DHT22;2947;52.276;9.946;2022-08-18T11:21:41;28.00;99.90
5842;DHT22;2947;52.276;9.946;2022-08-18T11:24:25;28.00;99.90
5842;DHT22;2947;52.276;9.946;2022-08-18T11:27:01;27.70;99.90
5842;DHT22;2947;52.276;9.946;2022-08-18T11:29:41;27.70;99.90
5842;DHT22;2947;52.276;9.946;2022-08-18T11:32:15;27.90;99.90
5842;DHT22;2947;52.276;9.946;2022-08-18T11:34:48;28.10;99.90
5842;DHT22;2947;52.276;9.946;2022-08-18T11:37:35;28.10;99.90
5842;DHT22;2947;52.276;9.946;2022-08-18T11:40:22;28.10;99.90
5842;DHT22;2947;52.276;9.946;2022-08-18T11:45:22;27.90;99.90
5842;DHT22;2947;52.276;9.946;2022-08-18T11:48:15;27.80;99.90
5842;DHT22;2947;52.276;9.946;2022-08-18T11:56:25;28.50;99.90
5842;DHT22;2947;52.276;9.946;2022-08-18T11:59:02;28.70;99.90
5842;DHT22;2947;52.276;9.946;2022-08-18T12:07:14;28.90;99.90
5842;DHT22;2947;52.276;9.946;2022-08-18T12:09:43;28.80;99.90
5842;DHT22;2947;52.276;9.946;2022-08-18T12:17:36;28.80;99.90
5842;DHT22;2947;52.276;9.946;2022-08-18T12:20:02;28.80;99.90
5842;DHT22;2947;52.276;9.946;2022-08-18T12:22:30;28.90;99.90
5842;DHT22;2947;52.276;9.946;2022-08-18T12:24:57;29.20;99.90
5842;DHT22;2947;52.276;9.946;2022-08-18T12:27:24;29.30;99.90
5842;DHT22;2947;52.276;9.946;2022-08-18T12:29:53;29.40;99.90
5842;DHT22;2947;52.276;9.946;2022-08-18T12:32:21;29.40;99.90
5842;DHT22;2947;52.276;9.946;2022-08-18T12:34:48;29.20;99.90
5842;DHT22;2947;52.276;9.946;2022-08-18T12:37:17;29.30;99.90
5842;DHT22;2947;52.276;9.946;2022-08-18T12:39:44;29.20;99.90
5842;DHT22;2947;52.276;9.946;2022-08-18T12:42:11;28.80;99.90
5842;DHT22;2947;52.276;9.946;2022-08-18T12:44:37;28.80;99.90
5842;DHT22;2947;52.276;9.946;2022-08-18T12:47:10;28.70;99.90
5842;DHT22;2947;52.276;9.946;2022-08-18T12:49:37;28.70;99.90
5842;DHT22;2947;52.276;9.946;2022-08-18T12:52:03;28.60;99.90
5842;DHT22;2947;52.276;9.946;2022-08-18T12:54:30;28.60;99.90
5842;DHT22;2947;52.276;9.946;2022-08-18T12:56:58;28.50;99.90
5842;DHT22;2947;52.276;9.946;2022-08-18T12:59:24;28.60;99.90
5842;DHT22;2947;52.276;9.946;2022-08-18T13:01:51;28.50;99.90
5842;DHT22;2947;52.276;9.946;2022-08-18T13:04:17;28.40;99.90
5842;DHT22;2947;52.276;9.946;2022-08-18T13:06:46;28.30;99.90
5842;DHT22;2947;52.276;9.946;2022-08-18T13:09:13;28.20;99.90
5842;DHT22;2947;52.276;9.946;2022-08-18T13:11:39;28.00;99.90
5842;DHT22;2947;52.276;9.946;2022-08-18T13:14:06;28.00;99.90
5842;DHT22;2947;52.276;9.946;2022-08-18T13:16:35;28.20;99.90
5842;DHT22;2947;52.276;9.946;2022-08-18T13:19:02;28.00;99.90
5842;DHT22;2947;52.276;9.946;2022-08-18T13:21:28;28.00;99.90
5842;DHT22;2947;52.276;9.946;2022-08-18T13:23:54;28.10;99.90
5842;DHT22;2947;52.276;9.946;2022-08-18T13:26:30;28.10;99.90
5842;DHT22;2947;52.276;9.946;2022-08-18T13:28:57;28.10;99.90
5842;DHT22;2947;52.276;9.946;2022-08-18T13:31:27;28.00;99.90
5842;DHT22;2947;52.276;9.946;2022-08-18T13:33:54;27.90;99.90
5842;DHT22;2947;52.276;9.946;2022-08-18T13:36:24;27.90;99.90
5842;DHT22;2947;52.276;9.946;2022-08-18T13:38:52;27.90;99.90
5842;DHT22;2947;52.276;9.946;2022-08-18T13:41:19;27.90;99.90
5842;DHT22;2947;52.276;9.946;2022-08-18T13:43:46;27.90;99.90
5842;DHT22;2947;52.276;9.946;2022-08-18T13:46:15;27.90;99.90
5842;DHT22;2947;52.276;9.946;2022-08-18T13:48:43;27.90;99.90
5842;DHT22;2947;52.276;9.946;2022-08-18T13:51:18;27.90;99.90
5842;DHT22;2947;52.276;9.946;2022-08-18T13:53:47;27.90;99.90
5842;DHT22;2947;52.276;9.946;2022-08-18T13:56:12;27.70;99.90
5842;DHT22;2947;52.276;9.946;2022-08-18T13:58:38;27.50;99.90
5842;DHT22;2947;52.276;9.946;2022-08-18T14:01:06;27.40;99.90
5842;DHT22;2947;52.276;9.946;2022-08-18T14:03:33;27.40;99.90
5842;DHT22;2947;52.276;9.946;2022-08-18T14:06:00;27.40;99.90
5842;DHT22;2947;52.276;9.946;2022-08-18T14:08:28;27.50;99.90
5842;DHT22;2947;52.276;9.946;2022-08-18T14:10:58;27.60;99.90
5842;DHT22;2947;52.276;9.946;2022-08-18T14:13:25;27.50;99.90
5842;DHT22;2947;52.276;9.946;2022-08-18T14:15:53;27.50;99.90
5842;DHT22;2947;52.276;9.946;2022-08-18T14:18:21;27.70;99.90
5842;DHT22;2947;52.276;9.946;2022-08-18T14:20:47;27.70;99.90
5842;DHT22;2947;52.276;9.946;2022-08-18T14:23:31;27.50;99.90
5842;DHT22;2947;52.276;9.946;2022-08-18T14:26:15;27.40;99.90
5842;DHT22;2947;52.276;9.946;2022-08-18T14:29:17;27.40;99.90
5842;DHT22;2947;52.276;9.946;2022-08-18T14:31:43;27.40;99.90
5842;DHT22;2947;52.276;9.946;2022-08-18T14:34:09;27.30;99.90
5842;DHT22;2947;52.276;9.946;2022-08-18T14:36:34;27.00;99.90
5842;DHT22;2947;52.276;9.946;2022-08-18T14:39:01;26.70;99.90
5842;DHT22;2947;52.276;9.946;2022-08-18T14:41:28;26.70;99.90
5842;DHT22;2947;52.276;9.946;2022-08-18T14:44:02;26.60;99.90
5842;DHT22;2947;52.276;9.946;2022-08-18T14:46:28;26.40;99.90
5842;DHT22;2947;52.276;9.946;2022-08-18T14:48:53;26.20;1.00
5842;DHT22;2947;52.276;9.946;2022-08-18T14:51:19;26.10;99.40
5842;DHT22;2947;52.276;9.946;2022-08-18T14:53:45;25.90;1.00
5842;DHT22;2947;52.276;9.946;2022-08-18T14:56:11;25.80;99.90
5842;DHT22;2947;52.276;9.946;2022-08-18T14:58:37;25.70;99.90
5842;DHT22;2947;52.276;9.946;2022-08-18T15:01:08;25.60;1.00
5842;DHT22;2947;52.276;9.946;2022-08-18T15:03:36;25.50;99.90
5842;DHT22;2947;52.276;9.946;2022-08-18T15:06:03;25.40;99.90
5842;DHT22;2947;52.276;9.946;2022-08-18T15:08:31;25.40;1.00
5842;DHT22;2947;52.276;9.946;2022-08-18T15:10:58;25.30;1.00
5842;DHT22;2947;52.276;9.946;2022-08-18T15:13:25;25.30;1.00
5842;DHT22;2947;52.276;9.946;2022-08-18T15:15:51;25.20;1.00
5842;DHT22;2947;52.276;9.946;2022-08-18T15:18:17;25.20;99.90
5842;DHT22;2947;52.276;9.946;2022-08-18T15:20:44;25.20;1.00
5842;DHT22;2947;52.276;9.946;2022-08-18T15:23:28;25.20;1.00
5842;DHT22;2947;52.276;9.946;2022-08-18T15:26:17;25.20;1.00
5842;DHT22;2947;52.276;9.946;2022-08-18T15:28:46;25.30;99.90
5842;DHT22;2947;52.276;9.946;2022-08-18T15:31:11;25.40;99.90
5842;DHT22;2947;52.276;9.946;2022-08-18T15:33:37;25.50;99.90
5842;DHT22;2947;52.276;9.946;2022-08-18T15:36:03;25.40;99.90
5842;DHT22;2947;52.276;9.946;2022-08-18T15:38:29;25.40;1.00
5842;DHT22;2947;52.276;9.946;2022-08-18T15:40:57;25.30;1.00
5842;DHT22;2947;52.276;9.946;2022-08-18T15:43:26;25.30;1.00
5842;DHT22;2947;52.276;9.946;2022-08-18T15:45:52;25.20;99.90
5842;DHT22;2947;52.276;9.946;2022-08-18T15:48:20;25.20;99.90
5842;DHT22;2947;52.276;9.946;2022-08-18T15:50:48;25.30;1.00
5842;DHT22;2947;52.276;9.946;2022-08-18T15:53:17;25.30;1.00
5842;DHT22;2947;52.276;9.946;2022-08-18T15:55:45;25.30;1.00
5842;DHT22;2947;52.276;9.946;2022-08-18T15:58:11;25.30;1.00
5842;DHT22;2947;52.276;9.946;2022-08-18T16:00:40;25.10;1.00
5842;DHT22;2947;52.276;9.946;2022-08-18T16:03:09;25.10;1.00
5842;DHT22;2947;52.276;9.946;2022-08-18T16:05:44;25.10;1.00
5842;DHT22;2947;52.276;9.946;2022-08-18T16:08:17;25.20;1.00
5842;DHT22;2947;52.276;9.946;2022-08-18T16:10:43;25.20;1.00
5842;DHT22;2947;52.276;9.946;2022-08-18T16:13:10;25.20;1.00
5842;DHT22;2947;52.276;9.946;2022-08-18T16:15:40;25.10;99.90
5842;DHT22;2947;52.276;9.946;2022-08-18T16:18:08;25.20;99.90
5842;DHT22;2947;52.276;9.946;2022-08-18T16:20:35;25.20;99.90
5842;DHT22;2947;52.276;9.946;2022-08-18T16:23:02;25.20;1.00
5842;DHT22;2947;52.276;9.946;2022-08-18T16:25:28;25.20;99.90
5842;DHT22;2947;52.276;9.946;2022-08-18T16:27:54;25.30;1.00
5842;DHT22;2947;52.276;9.946;2022-08-18T16:30:22;25.20;99.90
5842;DHT22;2947;52.276;9.946;2022-08-18T16:32:50;25.10;99.90
5842;DHT22;2947;52.276;9.946;2022-08-18T16:35:17;25.20;99.90
5842;DHT22;2947;52.276;9.946;2022-08-18T16:37:45;25.10;1.00
5842;DHT22;2947;52.276;9.946;2022-08-18T16:40:17;25.10;1.00
5842;DHT22;2947;52.276;9.946;2022-08-18T16:42:43;25.10;99.90
5842;DHT22;2947;52.276;9.946;2022-08-18T16:45:10;25.10;1.00
5842;DHT22;2947;52.276;9.946;2022-08-18T16:47:36;25.00;1.00
5842;DHT22;2947;52.276;9.946;2022-08-18T16:50:06;25.00;1.00
5842;DHT22;2947;52.276;9.946;2022-08-18T16:52:33;25.00;1.00
5842;DHT22;2947;52.276;9.946;2022-08-18T16:54:59;24.90;1.00
5842;DHT22;2947;52.276;9.946;2022-08-18T16:57:25;25.00;99.90
5842;DHT22;2947;52.276;9.946;2022-08-18T17:00:09;25.00;99.90
5842;DHT22;2947;52.276;9.946;2022-08-18T17:02:54;24.90;1.00
5842;DHT22;2947;52.276;9.946;2022-08-18T17:05:38;24.80;1.00
5842;DHT22;2947;52.276;9.946;2022-08-18T17:08:04;24.70;99.90
5842;DHT22;2947;52.276;9.946;2022-08-18T17:10:31;23.80;1.00
5842;DHT22;2947;52.276;9.946;2022-08-18T17:13:03;24.70;99.90
5842;DHT22;2947;52.276;9.946;2022-08-18T17:15:30;24.70;1.00
5842;DHT22;2947;52.276;9.946;2022-08-18T17:17:56;24.70;1.00
5842;DHT22;2947;52.276;9.946;2022-08-18T17:20:22;24.60;1.00
5842;DHT22;2947;52.276;9.946;2022-08-18T17:22:48;24.60;99.90
5842;DHT22;2947;52.276;9.946;2022-08-18T17:25:19;24.60;99.90
5842;DHT22;2947;52.276;9.946;2022-08-18T17:27:47;24.60;99.90
5842;DHT22;2947;52.276;9.946;2022-08-18T17:30:16;24.60;99.90
5842;DHT22;2947;52.276;9.946;2022-08-18T17:32:45;24.60;99.90
5842;DHT22;2947;52.276;9.946;2022-08-18T17:37:55;24.50;1.00
5842;DHT22;2947;52.276;9.946;2022-08-18T17:43:15;24.40;99.90
5842;DHT22;2947;52.276;9.946;2022-08-18T17:45:47;24.40;1.00
5842;DHT22;2947;52.276;9.946;2022-08-18T17:48:26;24.40;1.00
5842;DHT22;2947;52.276;9.946;2022-08-18T17:51:11;24.30;93.00
5842;DHT22;2947;52.276;9.946;2022-08-18T17:56:57;24.20;1.00
5842;DHT22;2947;52.276;9.946;2022-08-18T17:59:29;24.20;36.30
5842;DHT22;2947;52.276;9.946;2022-08-18T18:02:17;24.20;99.90
5842;DHT22;2947;52.276;9.946;2022-08-18T18:04:46;24.10;1.00
5842;DHT22;2947;52.276;9.946;2022-08-18T18:07:27;24.10;99.90
5842;DHT22;2947;52.276;9.946;2022-08-18T18:10:04;23.90;1.00
5842;DHT22;2947;52.276;9.946;2022-08-18T18:12:32;23.80;1.00
5842;DHT22;2947;52.276;9.946;2022-08-18T18:15:02;23.70;1.00
5842;DHT22;2947;52.276;9.946;2022-08-18T18:17:36;23.60;1.00
5842;DHT22;2947;52.276;9.946;2022-08-18T18:20:23;23.60;1.00
5842;DHT22;2947;52.276;9.946;2022-08-18T18:23:18;23.50;1.00
5842;DHT22;2947;52.276;9.946;2022-08-18T18:25:47;23.40;1.00
5842;DHT22;2947;52.276;9.946;2022-08-18T18:30:57;23.50;1.00
5842;DHT22;2947;52.276;9.946;2022-08-18T18:33:29;23.50;1.00
5842;DHT22;2947;52.276;9.946;2022-08-18T18:35:56;22.20;1.00
5842;DHT22;2947;52.276;9.946;2022-08-18T18:38:32;23.50;1.00
5842;DHT22;2947;52.276;9.946;2022-08-18T18:41:02;23.50;1.00
5842;DHT22;2947;52.276;9.946;2022-08-18T18:43:39;23.60;1.00
5842;DHT22;2947;52.276;9.946;2022-08-18T18:46:48;23.50;1.00
5842;DHT22;2947;52.276;9.946;2022-08-18T18:49:23;23.50;1.00
5842;DHT22;2947;52.276;9.946;2022-08-18T18:54:50;23.40;1.00
5842;DHT22;2947;52.276;9.946;2022-08-18T18:57:36;23.40;1.00
5842;DHT22;2947;52.276;9.946;2022-08-18T19:00:20;23.40;1.00
5842;DHT22;2947;52.276;9.946;2022-08-18T19:06:00;23.30;1.00
5842;DHT22;2947;52.276;9.946;2022-08-18T19:12:02;23.20;1.00
5842;DHT22;2947;52.276;9.946;2022-08-18T19:14:43;23.20;1.00
5842;DHT22;2947;52.276;9.946;2022-08-18T19:20:10;23.10;1.00
5842;DHT22;2947;52.276;9.946;2022-08-18T19:25:25;22.80;1.00
5842;DHT22;2947;52.276;9.946;2022-08-18T19:28:11;22.70;1.00
5842;DHT22;2947;52.276;9.946;2022-08-18T19:30:45;22.70;1.00
5842;DHT22;2947;52.276;9.946;2022-08-18T19:34:14;22.80;1.00
5842;DHT22;2947;52.276;9.946;2022-08-18T19:36:29;22.70;1.00
5842;DHT22;2947;52.276;9.946;2022-08-18T19:39:17;22.70;1.00